Time;durP1;ratioP1;P1;durP2;ratioP2;P2;SDS_P1;SDS_P2;PMS_P1;PMS_P2;Temp;Humidity;BMP_temperature;BMP_pressure;BME280_temperature;BME280_humidity;BME280_pressure;Samples;Min_cycle;Max_cycle;Signal;HPM_P1;HPM_P2
2022/04/25 00:03:20;;;;;;;330.97;96.80;;;6.90;99.90;;;;;;10425687;28;20036;-85
2022/04/25 00:08:20;;;;;;;137.63;60.43;;;6.90;99.90;;;;;;10425356;28;20028;-86
2022/04/25 00:13:21;;;;;;;632.87;120.80;;;6.80;99.90;;;;;;10425551;28;20485;-85
2022/04/25 00:18:25;;;;;;;291.30;73.03;;;6.70;99.90;;;;;;10410339;28;20087;-83
2022/04/25 00:23:26;;;;;;;150.33;56.93;;;6.70;99.90;;;;;;10429502;28;20047;-86
2022/04/25 00:28:26;;;;;;;139.67;59.47;;;6.70;99.90;;;;;;10418671;28;20025;-87
2022/04/25 00:33:27;;;;;;;465.80;102.80;;;6.70;99.90;;;;;;10410782;28;20056;-87
2022/04/25 00:38:27;;;;;;;434.43;110.97;;;6.70;99.90;;;;;;10424388;28;20037;-86
2022/04/25 00:43:28;;;;;;;568.57;139.70;;;6.80;99.90;;;;;;10409702;28;20939;-86
2022/04/25 00:48:29;;;;;;;222.50;80.80;;;6.90;99.90;;;;;;10408976;28;20033;-87
2022/04/25 00:53:29;;;;;;;221.23;75.97;;;6.80;99.90;;;;;;10408944;28;20510;-86
2022/04/25 00:58:30;;;;;;;127.17;54.00;;;6.70;99.90;;;;;;10408379;28;20037;-88
2022/04/25 01:03:31;;;;;;;165.90;67.30;;;6.70;99.90;;;;;;10424214;28;20458;-86
2022/04/25 01:08:37;;;;;;;336.17;93.87;;;6.70;99.90;;;;;;10416671;28;20053;-86
2022/04/25 01:13:38;;;;;;;824.90;145.53;;;6.60;99.90;;;;;;10409305;28;20040;-85
2022/04/25 01:18:38;;;;;;;758.10;130.83;;;6.50;99.90;;;;;;10425841;28;20074;-86
2022/04/25 01:28:59;;;;;;;610.50;122.93;;;6.10;99.90;;;;;;10408560;28;20041;-87
2022/04/25 01:34:00;;;;;;;435.23;114.30;;;6.00;99.90;;;;;;10408875;28;20044;-87
2022/04/25 01:39:01;;;;;;;540.43;124.63;;;5.90;99.90;;;;;;10416299;28;20047;-87
2022/04/25 01:44:01;;;;;;;452.87;107.30;;;6.00;99.90;;;;;;10420867;28;20124;-87
2022/04/25 01:49:02;;;;;;;258.67;76.03;;;6.00;99.90;;;;;;10439756;28;20116;-86
2022/04/25 01:54:03;;;;;;;703.87;141.60;;;6.10;99.90;;;;;;10439390;28;20021;-85
2022/04/25 01:59:03;;;;;;;148.93;59.33;;;6.10;99.90;;;;;;10412417;28;20488;-86
2022/04/25 02:04:04;;;;;;;567.43;111.13;;;6.20;99.90;;;;;;10431278;28;20037;-86
2022/04/25 02:09:05;;;;;;;474.53;101.90;;;6.20;99.90;;;;;;10423046;28;20350;-86
2022/04/25 02:14:06;;;;;;;600.07;119.33;;;6.00;99.90;;;;;;10421947;28;20054;-86
2022/04/25 02:19:06;;;;;;;153.67;59.50;;;6.10;99.90;;;;;;10435468;28;20413;-85
2022/04/25 02:24:07;;;;;;;417.83;102.50;;;6.10;99.90;;;;;;10454869;28;20028;-86
2022/04/25 02:29:08;;;;;;;184.90;73.67;;;6.10;99.90;;;;;;10435946;28;20046;-88
2022/04/25 02:34:08;;;;;;;266.00;88.77;;;6.20;99.90;;;;;;10425574;28;20033;-86
2022/04/25 02:39:09;;;;;;;303.97;96.83;;;6.30;99.90;;;;;;10420258;28;20044;-86
2022/04/25 02:44:10;;;;;;;146.83;50.90;;;6.30;99.90;;;;;;10440515;28;20033;-86
2022/04/25 02:49:10;;;;;;;116.27;45.37;;;6.30;99.90;;;;;;10433325;28;20201;-86
2022/04/25 02:54:11;;;;;;;108.53;43.93;;;6.00;99.90;;;;;;10413512;28;20033;-87
2022/04/25 02:59:12;;;;;;;114.60;46.77;;;5.80;99.90;;;;;;10448175;22;20049;-86
2022/04/25 03:04:13;;;;;;;160.90;57.83;;;5.80;99.90;;;;;;10444176;28;20119;-85
2022/04/25 03:09:13;;;;;;;116.47;54.43;;;5.80;99.90;;;;;;10426096;28;20450;-86
2022/04/25 03:14:14;;;;;;;104.07;46.30;;;5.90;99.90;;;;;;10453105;28;20515;-86
2022/04/25 03:19:17;;;;;;;133.27;53.73;;;5.90;99.90;;;;;;10447955;28;20040;-85
2022/04/25 03:24:18;;;;;;;149.30;59.27;;;5.80;99.90;;;;;;10454013;28;20426;-84
2022/04/25 03:29:19;;;;;;;172.73;63.00;;;5.90;99.90;;;;;;10450709;28;20029;-85
2022/04/25 03:34:20;;;;;;;114.60;54.50;;;5.90;99.90;;;;;;10447879;28;20094;-85
2022/04/25 03:39:20;;;;;;;183.87;69.30;;;5.90;99.90;;;;;;10429319;28;20052;-85
2022/04/25 03:44:21;;;;;;;192.90;72.10;;;6.00;99.90;;;;;;10443610;28;20431;-85
2022/04/25 03:49:22;;;;;;;108.53;48.53;;;5.90;99.90;;;;;;10425568;28;20044;-84
2022/04/25 03:59:42;;;;;;;138.37;57.90;;;6.10;99.90;;;;;;10413966;28;20061;-83
2022/04/25 04:04:43;;;;;;;149.47;63.70;;;6.20;99.90;;;;;;10458830;28;20021;-89
2022/04/25 04:09:47;;;;;;;101.47;46.87;;;6.40;99.90;;;;;;10425739;28;20024;-87
2022/04/25 04:14:48;;;;;;;147.97;54.33;;;6.40;99.90;;;;;;10439843;28;20021;-85
2022/04/25 04:19:48;;;;;;;144.73;55.43;;;6.50;99.90;;;;;;10440041;28;20108;-85
2022/04/25 04:24:49;;;;;;;195.17;57.67;;;6.40;99.90;;;;;;10439214;28;20037;-85
2022/04/25 04:29:50;;;;;;;124.23;47.77;;;6.50;99.90;;;;;;10434709;28;20037;-87
2022/04/25 04:34:50;;;;;;;273.27;78.67;;;6.40;99.90;;;;;;10418284;28;20043;-85
2022/04/25 04:45:15;;;;;;;272.43;67.33;;;6.40;99.90;;;;;;10451536;28;20041;-85
2022/04/25 04:50:16;;;;;;;572.53;119.10;;;6.50;99.90;;;;;;10462166;28;20033;-85
2022/04/25 04:55:17;;;;;;;264.43;83.43;;;6.60;99.90;;;;;;10450540;28;20091;-85
2022/04/25 05:00:17;;;;;;;202.03;79.37;;;6.80;99.90;;;;;;10450720;28;20443;-84
2022/04/25 05:05:18;;;;;;;173.77;72.70;;;7.10;99.90;;;;;;10451005;28;20531;-84
2022/04/25 05:10:19;;;;;;;219.73;91.73;;;7.30;99.90;;;;;;10484711;28;20035;-85
2022/04/25 05:15:20;;;;;;;235.27;99.47;;;7.50;99.90;;;;;;10469410;28;20036;-84
2022/04/25 05:20:23;;;;;;;194.50;81.70;;;7.60;99.90;;;;;;10468753;28;20040;-85
2022/04/25 05:25:25;;;;;;;224.17;91.30;;;7.70;99.90;;;;;;10472301;28;20036;-85
2022/04/25 05:30:26;;;;;;;214.37;88.23;;;7.70;99.90;;;;;;10456864;28;20033;-87
2022/04/25 05:35:29;;;;;;;210.63;88.20;;;7.80;99.90;;;;;;10480462;28;20108;-86
2022/04/25 05:40:30;;;;;;;160.83;74.83;;;7.80;99.90;;;;;;10453696;28;20388;-84
2022/04/25 05:45:31;;;;;;;352.40;115.60;;;8.00;99.90;;;;;;10486024;28;20024;-86
2022/04/25 05:55:51;;;;;;;188.67;86.63;;;8.40;99.90;;;;;;10479548;28;20422;-85
2022/04/25 06:00:51;;;;;;;217.80;100.53;;;8.50;99.90;;;;;;10489269;28;20089;-86
2022/04/25 06:05:55;;;;;;;202.33;95.80;;;8.60;99.90;;;;;;10487507;28;20369;-86
2022/04/25 06:10:55;;;;;;;152.13;81.33;;;8.70;99.90;;;;;;10453586;28;20041;-85
2022/04/25 06:15:56;;;;;;;211.43;105.03;;;9.00;99.90;;;;;;10456387;28;20044;-86
2022/04/25 06:20:58;;;;;;;215.20;114.33;;;9.20;99.90;;;;;;10481888;28;20035;-86
2022/04/25 06:25:58;;;;;;;118.15;66.50;;;9.50;99.90;;;;;;10467251;28;20040;-86
2022/04/25 06:30:59;;;;;;;115.90;66.93;;;9.70;99.90;;;;;;10478812;28;20039;-84
2022/04/25 06:36:00;;;;;;;93.65;54.50;;;9.80;99.90;;;;;;10487772;28;20048;-86
2022/04/25 06:41:00;;;;;;;88.68;51.15;;;9.90;99.90;;;;;;10489579;28;20049;-85
2022/04/25 06:46:01;;;;;;;74.25;43.78;;;10.20;99.90;;;;;;10439666;28;20021;-87
2022/04/25 06:51:01;;;;;;;83.18;50.05;;;10.40;99.90;;;;;;10455807;28;20021;-86
2022/04/25 06:56:02;;;;;;;77.30;45.15;;;10.70;99.90;;;;;;10455386;28;20044;-85
2022/04/25 07:01:03;;;;;;;80.75;48.78;;;11.20;99.90;;;;;;10454947;28;20067;-87
2022/04/25 07:06:03;;;;;;;57.50;36.70;;;11.60;99.90;;;;;;10480855;28;20078;-85
2022/04/25 07:11:04;;;;;;;60.28;38.85;;;11.80;99.90;;;;;;10496088;28;20024;-86
2022/04/25 07:16:05;;;;;;;65.13;40.25;;;12.00;99.90;;;;;;10477878;28;20031;-85
2022/04/25 07:32:04;;;;;;;55.72;37.30;;;12.20;99.90;;;;;;10366421;28;20100;-84
2022/04/25 07:37:05;;;;;;;48.63;30.95;;;12.50;99.90;;;;;;10448380;28;20059;-85
2022/04/25 07:42:06;;;;;;;42.90;27.65;;;12.60;99.90;;;;;;10494446;28;20107;-84
2022/04/25 07:47:06;;;;;;;44.72;28.88;;;12.70;99.90;;;;;;10494762;28;20028;-83
2022/04/25 07:52:08;;;;;;;39.95;26.23;;;13.10;99.90;;;;;;10495547;28;20472;-83
2022/04/25 07:57:08;;;;;;;48.67;28.45;;;13.20;99.90;;;;;;10476446;28;20086;-83
2022/04/25 08:02:09;;;;;;;43.33;27.40;;;13.20;99.90;;;;;;10495104;28;20093;-84
2022/04/25 08:07:10;;;;;;;36.78;24.80;;;13.30;99.90;;;;;;10493587;28;20403;-85
2022/04/25 08:22:50;;;;;;;35.13;23.38;;;13.70;99.90;;;;;;10493395;28;20037;-85
2022/04/25 08:27:50;;;;;;;32.17;20.33;;;13.70;99.90;;;;;;10493297;28;20576;-83
2022/04/25 08:32:52;;;;;;;36.90;22.88;;;13.70;99.90;;;;;;10493213;28;20028;-84
2022/04/25 08:37:56;;;;;;;28.40;18.38;;;13.50;99.90;;;;;;10474730;28;20060;-83
2022/04/25 08:42:57;;;;;;;33.25;19.70;;;13.40;99.90;;;;;;10492693;28;20088;-83
2022/04/25 08:48:00;;;;;;;35.92;21.85;;;13.50;99.90;;;;;;10492436;28;20031;-83
2022/04/25 08:53:00;;;;;;;29.08;18.73;;;13.80;99.90;;;;;;10492573;28;20029;-83
2022/04/25 08:58:03;;;;;;;22.73;14.30;;;13.90;99.90;;;;;;10491896;28;20040;-84
2022/04/25 09:03:03;;;;;;;19.73;12.52;;;13.90;99.90;;;;;;10491715;28;20032;-83
2022/04/25 09:08:04;;;;;;;25.13;14.15;;;13.80;99.90;;;;;;10491295;28;20119;-84
2022/04/25 09:13:05;;;;;;;23.48;14.07;;;13.80;99.90;;;;;;10492702;28;20021;-84
2022/04/25 09:18:06;;;;;;;19.75;12.57;;;13.90;99.90;;;;;;10491149;28;20044;-84
2022/04/25 09:23:20;;;;;;;19.70;11.57;;;13.90;99.90;;;;;;10491322;28;20458;-83
2022/04/25 09:28:22;;;;;;;17.40;10.65;;;13.70;99.90;;;;;;10490945;28;20405;-84
2022/04/25 09:33:23;;;;;;;35.95;19.20;;;13.50;99.90;;;;;;10491219;28;20033;-83
2022/04/25 09:38:30;;;;;;;34.85;20.83;;;13.40;99.90;;;;;;10490545;28;20063;-83
2022/04/25 09:43:32;;;;;;;20.92;12.40;;;13.60;99.90;;;;;;10491014;28;20021;-85
2022/04/25 09:48:34;;;;;;;21.60;13.32;;;13.70;99.90;;;;;;10490998;28;20036;-83
2022/04/25 09:53:44;;;;;;;27.15;15.65;;;13.70;99.90;;;;;;10490451;28;20040;-83
2022/04/25 09:59:01;;;;;;;27.52;16.88;;;13.90;99.90;;;;;;10490512;28;20048;-83
2022/04/25 10:04:03;;;;;;;30.15;19.05;;;14.20;99.90;;;;;;10490870;28;20025;-82
2022/04/25 10:09:08;;;;;;;26.25;17.35;;;14.10;99.90;;;;;;10491260;28;20066;-83
2022/04/25 10:14:10;;;;;;;26.70;16.30;;;14.00;99.90;;;;;;10490892;28;20040;-82
2022/04/25 10:19:10;;;;;;;30.30;17.73;;;13.80;99.90;;;;;;10493198;28;20047;-82
2022/04/25 10:24:11;;;;;;;34.47;19.27;;;13.40;99.90;;;;;;10498296;28;20032;-83
2022/04/25 10:29:18;;;;;;;46.95;30.65;;;13.20;99.90;;;;;;10497863;28;20036;-83
2022/04/25 10:34:19;;;;;;;68.32;38.13;;;12.90;99.90;;;;;;10480152;28;20032;-85
2022/04/25 10:39:24;;;;;;;33.33;22.30;;;12.70;99.90;;;;;;10496886;28;20052;-82
2022/04/25 10:44:25;;;;;;;28.30;17.35;;;12.60;99.90;;;;;;10498422;28;20435;-83
2022/04/25 10:49:40;;;;;;;40.00;24.17;;;12.60;99.90;;;;;;10497073;28;20107;-82
2022/04/25 10:54:48;;;;;;;17.50;9.73;;;12.50;99.90;;;;;;10498034;28;20039;-82
2022/04/25 10:59:48;;;;;;;16.73;10.40;;;12.50;99.90;;;;;;10496536;28;20055;-83
2022/04/25 11:05:11;;;;;;;23.08;12.68;;;12.30;99.90;;;;;;10496998;28;20027;-82
2022/04/25 11:10:47;;;;;;;34.95;18.05;;;12.10;99.90;;;;;;10496055;28;20020;-83
2022/04/25 11:15:49;;;;;;;34.95;19.70;;;11.90;99.90;;;;;;10496009;28;20040;-86
2022/04/25 11:20:58;;;;;;;52.88;27.05;;;11.70;99.90;;;;;;10477670;28;20034;-86
2022/04/25 11:26:00;;;;;;;80.45;39.83;;;11.40;99.90;;;;;;10475051;28;20025;-87
2022/04/25 11:31:13;;;;;;;52.92;31.27;;;11.20;99.90;;;;;;10436130;28;20024;-86
2022/04/25 11:36:14;;;;;;;60.67;35.30;;;11.30;99.90;;;;;;10454490;28;20041;-87
2022/04/25 11:41:15;;;;;;;51.85;30.23;;;11.50;99.90;;;;;;10435666;28;20239;-85
2022/04/25 11:46:17;;;;;;;26.65;16.63;;;12.20;99.90;;;;;;10454027;28;20021;-84
2022/04/25 11:51:30;;;;;;;37.65;21.63;;;12.70;99.90;;;;;;10435593;28;20017;-87
2022/04/25 11:56:34;;;;;;;26.27;16.75;;;12.70;99.90;;;;;;10452646;28;20033;-83
2022/04/25 12:01:42;;;;;;;25.52;15.50;;;12.70;99.90;;;;;;10453096;28;20079;-86
2022/04/25 12:06:59;;;;;;;27.52;17.15;;;12.70;99.90;;;;;;10452907;28;20032;-83
2022/04/25 12:17:20;;;;;;;29.98;20.77;;;12.90;99.90;;;;;;10492355;28;20036;-83
2022/04/25 12:22:22;;;;;;;29.35;20.60;;;13.10;99.90;;;;;;10493847;28;20157;-83
2022/04/25 12:27:23;;;;;;;24.33;16.70;;;13.10;99.90;;;;;;10493019;28;20029;-84
2022/04/25 12:32:23;;;;;;;16.70;11.60;;;13.10;99.90;;;;;;10475664;28;20050;-85
2022/04/25 12:37:24;;;;;;;18.10;12.27;;;12.90;99.90;;;;;;10455097;28;20418;-86
2022/04/25 12:42:46;;;;;;;11.20;8.30;;;13.10;99.90;;;;;;10454932;28;20102;-84
2022/04/25 12:47:57;;;;;;;12.40;8.80;;;13.10;99.90;;;;;;10449769;28;20110;-85
2022/04/25 12:52:58;;;;;;;13.88;9.70;;;12.90;99.90;;;;;;10451645;28;20021;-84
2022/04/25 12:57:59;;;;;;;14.80;10.02;;;12.70;99.90;;;;;;10475704;28;20042;-84
2022/04/25 13:03:02;;;;;;;14.88;11.45;;;12.50;99.90;;;;;;10475611;28;20048;-83
2022/04/25 13:08:04;;;;;;;14.73;10.13;;;12.40;99.90;;;;;;10451080;28;20478;-83
2022/04/25 13:13:05;;;;;;;14.38;10.88;;;12.10;99.90;;;;;;10453984;28;20514;-84
2022/04/25 13:18:05;;;;;;;12.95;9.93;;;11.90;99.90;;;;;;10473062;28;20044;-82
2022/04/25 13:23:07;;;;;;;16.60;10.30;;;11.60;99.90;;;;;;10472743;28;20383;-84
2022/04/25 13:28:07;;;;;;;14.30;9.82;;;11.50;99.90;;;;;;10489069;28;20035;-84
2022/04/25 13:33:08;;;;;;;23.73;15.82;;;11.50;99.90;;;;;;10490769;28;20021;-83
2022/04/25 13:38:09;;;;;;;22.58;15.85;;;11.40;99.90;;;;;;10468716;28;20053;-83
2022/04/25 13:43:09;;;;;;;44.05;25.67;;;11.30;99.90;;;;;;10457745;28;20037;-83
2022/04/25 13:48:10;;;;;;;48.60;28.13;;;11.20;99.90;;;;;;10471466;28;20032;-84
2022/04/25 13:53:10;;;;;;;52.42;38.55;;;11.10;99.90;;;;;;10472624;28;20029;-84
2022/04/25 13:58:11;;;;;;;36.33;25.08;;;11.00;99.90;;;;;;10467736;28;20068;-83
2022/04/25 14:03:12;;;;;;;38.47;24.77;;;11.10;99.90;;;;;;10450137;28;20123;-82
2022/04/25 14:08:14;;;;;;;32.03;21.38;;;11.40;99.90;;;;;;10462031;28;20033;-83
2022/04/25 14:13:15;;;;;;;38.05;25.73;;;11.60;99.90;;;;;;10470623;28;20033;-87
2022/04/25 14:18:16;;;;;;;54.17;33.58;;;11.80;99.90;;;;;;10455980;28;20032;-87
2022/04/25 14:23:16;;;;;;;50.45;35.20;;;11.80;99.90;;;;;;10445987;28;20395;-86
2022/04/25 14:28:17;;;;;;;30.83;21.88;;;11.80;99.90;;;;;;10460213;28;20057;-83
2022/04/25 14:33:19;;;;;;;39.45;26.20;;;11.70;99.90;;;;;;10481993;28;20442;-86
2022/04/25 14:38:22;;;;;;;37.92;24.60;;;11.40;99.90;;;;;;10459641;28;20064;-85
2022/04/25 14:43:24;;;;;;;25.02;15.95;;;11.20;99.90;;;;;;10477121;28;20065;-83
2022/04/25 14:48:24;;;;;;;42.28;27.85;;;11.10;99.90;;;;;;10479485;28;20039;-84
2022/04/25 14:58:44;;;;;;;39.38;23.40;;;11.00;99.90;;;;;;10477758;28;20048;-84
2022/04/25 15:03:45;;;;;;;50.03;29.40;;;10.90;99.90;;;;;;10466213;28;20028;-84
2022/04/25 15:08:46;;;;;;;29.13;18.92;;;10.90;99.90;;;;;;10468665;28;20037;-85
2022/04/25 15:13:46;;;;;;;33.85;19.38;;;10.80;99.90;;;;;;10459608;28;20408;-84
2022/04/25 15:18:47;;;;;;;32.70;21.90;;;10.90;99.90;;;;;;10462617;28;20033;-82
2022/04/25 15:23:48;;;;;;;31.50;19.83;;;10.90;99.90;;;;;;10446920;28;20052;-84
2022/04/25 15:28:48;;;;;;;71.82;38.95;;;10.90;99.90;;;;;;10478402;28;20029;-84
2022/04/25 15:33:50;;;;;;;42.90;24.65;;;10.90;99.90;;;;;;10474123;28;20028;-84
2022/04/25 15:38:52;;;;;;;55.25;29.52;;;11.00;99.90;;;;;;10471258;28;20542;-83
2022/04/25 15:43:53;;;;;;;50.25;28.98;;;10.90;99.90;;;;;;10456377;28;20024;-89
2022/04/25 15:48:53;;;;;;;30.98;18.33;;;10.80;99.90;;;;;;10475561;28;20028;-88
2022/04/25 15:59:14;;;;;;;58.42;32.40;;;10.70;99.90;;;;;;10464570;28;20068;-87
2022/04/25 16:04:15;;;;;;;71.28;37.67;;;10.70;99.90;;;;;;10447272;28;20314;-85
2022/04/25 16:09:16;;;;;;;69.97;38.88;;;10.60;99.90;;;;;;10475725;28;20562;-84
2022/04/25 16:14:16;;;;;;;72.32;39.53;;;10.50;99.90;;;;;;10471704;28;20076;-87
2022/04/25 16:19:17;;;;;;;83.97;42.20;;;10.50;99.90;;;;;;10443049;28;20086;-84
2022/04/25 16:24:18;;;;;;;70.20;37.85;;;10.30;99.90;;;;;;10456564;28;20031;-84
2022/04/25 16:29:18;;;;;;;66.78;36.90;;;10.20;99.90;;;;;;10464864;28;20373;-86
2022/04/25 16:34:20;;;;;;;56.30;28.03;;;10.10;99.90;;;;;;10448098;28;20484;-87
2022/04/25 16:39:30;;;;;;;100.45;48.67;;;10.00;99.90;;;;;;10464951;28;20056;-85
2022/04/25 16:44:31;;;;;;;70.63;36.78;;;10.00;99.90;;;;;;10460049;28;20111;-83
2022/04/25 16:49:32;;;;;;;75.13;36.58;;;10.00;99.90;;;;;;10456299;28;20052;-84
2022/04/25 16:54:34;;;;;;;78.32;37.42;;;9.90;99.90;;;;;;10464369;28;20029;-88
2022/04/25 16:59:35;;;;;;;88.70;39.70;;;9.70;99.90;;;;;;10450541;28;20068;-87
2022/04/25 17:04:35;;;;;;;60.27;27.73;;;9.70;99.90;;;;;;10451086;28;20059;-84
2022/04/25 17:09:37;;;;;;;62.17;27.40;;;9.60;99.90;;;;;;10451330;28;20032;-85
2022/04/25 17:14:37;;;;;;;57.50;24.40;;;9.50;99.90;;;;;;10467185;28;20582;-86
2022/04/25 17:19:38;;;;;;;58.23;25.57;;;9.30;99.90;;;;;;10453977;28;20142;-91
2022/04/25 17:24:39;;;;;;;64.77;27.07;;;9.20;99.90;;;;;;10456684;28;20525;-84
2022/04/25 17:29:40;;;;;;;47.00;21.10;;;9.10;99.90;;;;;;10464936;28;20116;-85
